sensor_id;sensor_type;location;lat;lon;timestamp;P1;durP1;ratioP1;P2;durP2;ratioP2
65667;SDS011;52369;52.542;13.232;2023-05-07T00:00:43;16.75;;;10.10;;
65667;SDS011;52369;52.542;13.232;2023-05-07T00:03:09;18.52;;;10.75;;
65667;SDS011;52369;52.542;13.232;2023-05-07T00:05:36;15.88;;;9.70;;
65667;SDS011;52369;52.542;13.232;2023-05-07T00:08:02;17.90;;;10.05;;
65667;SDS011;52369;52.542;13.232;2023-05-07T00:10:29;21.45;;;11.68;;
65667;SDS011;52369;52.542;13.232;2023-05-07T00:12:55;17.33;;;10.25;;
65667;SDS011;52369;52.542;13.232;2023-05-07T00:15:21;14.50;;;8.90;;
65667;SDS011;52369;52.542;13.232;2023-05-07T00:17:47;16.17;;;9.52;;
65667;SDS011;52369;52.542;13.232;2023-05-07T00:20:13;17.63;;;10.00;;
65667;SDS011;52369;52.542;13.232;2023-05-07T00:22:39;18.33;;;10.10;;
65667;SDS011;52369;52.542;13.232;2023-05-07T00:25:05;44.30;;;20.27;;
65667;SDS011;52369;52.542;13.232;2023-05-07T00:27:31;26.38;;;14.35;;
65667;SDS011;52369;52.542;13.232;2023-05-07T00:29:57;27.73;;;14.60;;
65667;SDS011;52369;52.542;13.232;2023-05-07T00:32:23;14.95;;;9.27;;
65667;SDS011;52369;52.542;13.232;2023-05-07T00:34:49;14.77;;;9.07;;
65667;SDS011;52369;52.542;13.232;2023-05-07T00:37:16;14.32;;;8.57;;
65667;SDS011;52369;52.542;13.232;2023-05-07T00:39:42;13.43;;;9.23;;
65667;SDS011;52369;52.542;13.232;2023-05-07T00:42:08;16.73;;;8.73;;
65667;SDS011;52369;52.542;13.232;2023-05-07T00:44:34;13.85;;;8.68;;
65667;SDS011;52369;52.542;13.232;2023-05-07T00:47:01;17.33;;;8.60;;
65667;SDS011;52369;52.542;13.232;2023-05-07T00:49:31;14.20;;;7.97;;
65667;SDS011;52369;52.542;13.232;2023-05-07T00:54:26;13.52;;;7.60;;
65667;SDS011;52369;52.542;13.232;2023-05-07T00:56:52;12.98;;;7.55;;
65667;SDS011;52369;52.542;13.232;2023-05-07T00:59:18;13.32;;;7.57;;
65667;SDS011;52369;52.542;13.232;2023-05-07T01:01:44;13.50;;;8.15;;
65667;SDS011;52369;52.542;13.232;2023-05-07T01:04:10;12.95;;;7.70;;
65667;SDS011;52369;52.542;13.232;2023-05-07T01:06:36;14.48;;;7.88;;
65667;SDS011;52369;52.542;13.232;2023-05-07T01:09:03;14.57;;;7.60;;
65667;SDS011;52369;52.542;13.232;2023-05-07T01:11:29;14.38;;;8.27;;
65667;SDS011;52369;52.542;13.232;2023-05-07T01:13:55;12.63;;;7.82;;
65667;SDS011;52369;52.542;13.232;2023-05-07T01:16:22;13.32;;;8.10;;
65667;SDS011;52369;52.542;13.232;2023-05-07T01:18:48;12.88;;;8.27;;
65667;SDS011;52369;52.542;13.232;2023-05-07T01:21:14;13.32;;;8.43;;
65667;SDS011;52369;52.542;13.232;2023-05-07T01:23:41;12.60;;;8.18;;
65667;SDS011;52369;52.542;13.232;2023-05-07T01:26:07;12.32;;;8.18;;
65667;SDS011;52369;52.542;13.232;2023-05-07T01:28:33;14.65;;;8.85;;
65667;SDS011;52369;52.542;13.232;2023-05-07T01:31:03;13.73;;;8.55;;
65667;SDS011;52369;52.542;13.232;2023-05-07T01:33:31;13.95;;;8.45;;
65667;SDS011;52369;52.542;13.232;2023-05-07T01:35:58;14.10;;;8.38;;
65667;SDS011;52369;52.542;13.232;2023-05-07T01:38:31;11.40;;;7.43;;
65667;SDS011;52369;52.542;13.232;2023-05-07T01:40:57;12.02;;;7.70;;
65667;SDS011;52369;52.542;13.232;2023-05-07T01:43:23;18.10;;;9.98;;
65667;SDS011;52369;52.542;13.232;2023-05-07T01:45:49;16.95;;;10.27;;
65667;SDS011;52369;52.542;13.232;2023-05-07T01:48:15;19.25;;;10.80;;
65667;SDS011;52369;52.542;13.232;2023-05-07T01:50:42;21.30;;;11.20;;
65667;SDS011;52369;52.542;13.232;2023-05-07T01:53:08;20.75;;;10.30;;
65667;SDS011;52369;52.542;13.232;2023-05-07T01:55:35;35.63;;;16.23;;
65667;SDS011;52369;52.542;13.232;2023-05-07T01:58:02;18.02;;;10.23;;
65667;SDS011;52369;52.542;13.232;2023-05-07T02:00:28;12.05;;;8.05;;
65667;SDS011;52369;52.542;13.232;2023-05-07T02:02:54;15.32;;;9.02;;
65667;SDS011;52369;52.542;13.232;2023-05-07T02:05:20;13.25;;;8.43;;
65667;SDS011;52369;52.542;13.232;2023-05-07T02:07:46;11.65;;;7.70;;
65667;SDS011;52369;52.542;13.232;2023-05-07T02:10:12;12.80;;;7.43;;
65667;SDS011;52369;52.542;13.232;2023-05-07T02:12:38;15.68;;;7.82;;
65667;SDS011;52369;52.542;13.232;2023-05-07T02:15:04;14.25;;;7.90;;
65667;SDS011;52369;52.542;13.232;2023-05-07T02:17:30;12.73;;;7.90;;
65667;SDS011;52369;52.542;13.232;2023-05-07T02:19:58;14.63;;;8.13;;
65667;SDS011;52369;52.542;13.232;2023-05-07T02:22:24;13.32;;;8.15;;
65667;SDS011;52369;52.542;13.232;2023-05-07T02:24:50;12.80;;;7.72;;
65667;SDS011;52369;52.542;13.232;2023-05-07T02:27:16;14.40;;;8.65;;
65667;SDS011;52369;52.542;13.232;2023-05-07T02:29:42;12.95;;;8.15;;
65667;SDS011;52369;52.542;13.232;2023-05-07T02:32:08;14.45;;;8.27;;
65667;SDS011;52369;52.542;13.232;2023-05-07T02:34:34;19.40;;;9.85;;
65667;SDS011;52369;52.542;13.232;2023-05-07T02:37:00;14.57;;;8.48;;
65667;SDS011;52369;52.542;13.232;2023-05-07T02:39:27;14.45;;;8.55;;
65667;SDS011;52369;52.542;13.232;2023-05-07T02:41:53;14.00;;;8.73;;
65667;SDS011;52369;52.542;13.232;2023-05-07T02:44:19;14.65;;;9.07;;
65667;SDS011;52369;52.542;13.232;2023-05-07T02:46:45;15.05;;;8.80;;
65667;SDS011;52369;52.542;13.232;2023-05-07T02:49:11;16.60;;;9.15;;
65667;SDS011;52369;52.542;13.232;2023-05-07T02:51:37;14.82;;;8.52;;
65667;SDS011;52369;52.542;13.232;2023-05-07T02:54:03;16.23;;;9.27;;
65667;SDS011;52369;52.542;13.232;2023-05-07T02:56:29;16.30;;;8.98;;
65667;SDS011;52369;52.542;13.232;2023-05-07T02:58:55;14.60;;;8.65;;
65667;SDS011;52369;52.542;13.232;2023-05-07T03:01:21;17.33;;;9.77;;
65667;SDS011;52369;52.542;13.232;2023-05-07T03:03:47;14.80;;;8.90;;
65667;SDS011;52369;52.542;13.232;2023-05-07T03:06:13;17.15;;;8.85;;
65667;SDS011;52369;52.542;13.232;2023-05-07T03:08:40;15.43;;;9.48;;
65667;SDS011;52369;52.542;13.232;2023-05-07T03:11:06;15.25;;;8.32;;
65667;SDS011;52369;52.542;13.232;2023-05-07T03:13:32;14.52;;;8.57;;
65667;SDS011;52369;52.542;13.232;2023-05-07T03:15:58;14.60;;;7.82;;
65667;SDS011;52369;52.542;13.232;2023-05-07T03:18:24;13.52;;;7.65;;
65667;SDS011;52369;52.542;13.232;2023-05-07T03:20:51;14.02;;;8.50;;
65667;SDS011;52369;52.542;13.232;2023-05-07T03:23:17;12.73;;;7.93;;
65667;SDS011;52369;52.542;13.232;2023-05-07T03:25:43;14.18;;;8.45;;
65667;SDS011;52369;52.542;13.232;2023-05-07T03:28:09;13.77;;;8.45;;
65667;SDS011;52369;52.542;13.232;2023-05-07T03:30:35;15.60;;;8.57;;
65667;SDS011;52369;52.542;13.232;2023-05-07T03:33:01;14.32;;;7.93;;
65667;SDS011;52369;52.542;13.232;2023-05-07T03:35:27;12.40;;;7.70;;
65667;SDS011;52369;52.542;13.232;2023-05-07T03:37:53;13.38;;;8.38;;
65667;SDS011;52369;52.542;13.232;2023-05-07T03:40:19;12.90;;;7.57;;
65667;SDS011;52369;52.542;13.232;2023-05-07T03:42:45;15.32;;;8.32;;
65667;SDS011;52369;52.542;13.232;2023-05-07T03:45:11;11.52;;;7.53;;
65667;SDS011;52369;52.542;13.232;2023-05-07T03:47:37;14.48;;;8.15;;
65667;SDS011;52369;52.542;13.232;2023-05-07T03:50:03;14.07;;;8.35;;
65667;SDS011;52369;52.542;13.232;2023-05-07T03:52:30;13.13;;;8.23;;
65667;SDS011;52369;52.542;13.232;2023-05-07T03:54:56;13.60;;;7.60;;
65667;SDS011;52369;52.542;13.232;2023-05-07T03:57:22;11.65;;;7.68;;
65667;SDS011;52369;52.542;13.232;2023-05-07T03:59:48;12.23;;;7.60;;
65667;SDS011;52369;52.542;13.232;2023-05-07T04:02:14;11.80;;;7.30;;
65667;SDS011;52369;52.542;13.232;2023-05-07T04:04:40;14.30;;;8.38;;
65667;SDS011;52369;52.542;13.232;2023-05-07T04:07:06;12.27;;;7.13;;
65667;SDS011;52369;52.542;13.232;2023-05-07T04:09:32;14.23;;;7.82;;
65667;SDS011;52369;52.542;13.232;2023-05-07T04:11:58;16.98;;;8.43;;
65667;SDS011;52369;52.542;13.232;2023-05-07T04:14:24;12.02;;;7.28;;
65667;SDS011;52369;52.542;13.232;2023-05-07T04:16:50;11.32;;;7.32;;
65667;SDS011;52369;52.542;13.232;2023-05-07T04:19:16;12.88;;;7.45;;
65667;SDS011;52369;52.542;13.232;2023-05-07T04:21:42;12.93;;;7.32;;
65667;SDS011;52369;52.542;13.232;2023-05-07T04:24:08;11.32;;;7.43;;
65667;SDS011;52369;52.542;13.232;2023-05-07T04:26:34;14.00;;;7.65;;
65667;SDS011;52369;52.542;13.232;2023-05-07T04:29:00;12.73;;;7.10;;
65667;SDS011;52369;52.542;13.232;2023-05-07T04:31:26;11.32;;;6.60;;
65667;SDS011;52369;52.542;13.232;2023-05-07T04:33:52;11.88;;;7.30;;
65667;SDS011;52369;52.542;13.232;2023-05-07T04:36:18;13.15;;;7.30;;
65667;SDS011;52369;52.542;13.232;2023-05-07T04:38:44;9.48;;;6.30;;
65667;SDS011;52369;52.542;13.232;2023-05-07T04:41:12;10.65;;;6.70;;
65667;SDS011;52369;52.542;13.232;2023-05-07T04:43:38;10.50;;;6.22;;
65667;SDS011;52369;52.542;13.232;2023-05-07T04:46:05;11.50;;;6.97;;
65667;SDS011;52369;52.542;13.232;2023-05-07T04:48:31;11.52;;;6.95;;
65667;SDS011;52369;52.542;13.232;2023-05-07T04:50:57;11.95;;;6.70;;
65667;SDS011;52369;52.542;13.232;2023-05-07T04:53:23;11.90;;;6.70;;
65667;SDS011;52369;52.542;13.232;2023-05-07T04:55:54;13.32;;;7.07;;
65667;SDS011;52369;52.542;13.232;2023-05-07T04:58:20;12.18;;;7.20;;
65667;SDS011;52369;52.542;13.232;2023-05-07T05:00:46;9.45;;;6.57;;
65667;SDS011;52369;52.542;13.232;2023-05-07T05:03:12;10.57;;;6.82;;
65667;SDS011;52369;52.542;13.232;2023-05-07T05:05:38;10.55;;;6.38;;
65667;SDS011;52369;52.542;13.232;2023-05-07T05:08:04;11.95;;;6.38;;
65667;SDS011;52369;52.542;13.232;2023-05-07T05:10:30;10.90;;;5.95;;
65667;SDS011;52369;52.542;13.232;2023-05-07T05:12:56;11.48;;;6.00;;
65667;SDS011;52369;52.542;13.232;2023-05-07T05:15:22;11.88;;;6.72;;
65667;SDS011;52369;52.542;13.232;2023-05-07T05:17:48;10.80;;;6.47;;
65667;SDS011;52369;52.542;13.232;2023-05-07T05:20:14;10.95;;;6.43;;
65667;SDS011;52369;52.542;13.232;2023-05-07T05:22:41;10.90;;;7.18;;
65667;SDS011;52369;52.542;13.232;2023-05-07T05:25:07;12.65;;;7.55;;
65667;SDS011;52369;52.542;13.232;2023-05-07T05:27:34;12.65;;;7.32;;
65667;SDS011;52369;52.542;13.232;2023-05-07T05:30:00;10.35;;;5.90;;
65667;SDS011;52369;52.542;13.232;2023-05-07T05:32:26;10.13;;;6.15;;
65667;SDS011;52369;52.542;13.232;2023-05-07T05:34:52;10.43;;;5.90;;
65667;SDS011;52369;52.542;13.232;2023-05-07T05:37:19;10.02;;;6.13;;
65667;SDS011;52369;52.542;13.232;2023-05-07T05:39:45;9.57;;;6.03;;
65667;SDS011;52369;52.542;13.232;2023-05-07T05:42:11;9.75;;;5.47;;
65667;SDS011;52369;52.542;13.232;2023-05-07T05:44:37;12.00;;;7.32;;
65667;SDS011;52369;52.542;13.232;2023-05-07T05:47:03;12.65;;;7.13;;
65667;SDS011;52369;52.542;13.232;2023-05-07T05:49:30;16.48;;;5.88;;
65667;SDS011;52369;52.542;13.232;2023-05-07T05:51:56;11.73;;;6.05;;
65667;SDS011;52369;52.542;13.232;2023-05-07T05:54:22;10.38;;;5.85;;
65667;SDS011;52369;52.542;13.232;2023-05-07T05:56:48;10.38;;;6.00;;
65667;SDS011;52369;52.542;13.232;2023-05-07T05:59:14;9.65;;;5.78;;
65667;SDS011;52369;52.542;13.232;2023-05-07T06:01:40;10.07;;;6.10;;
65667;SDS011;52369;52.542;13.232;2023-05-07T06:04:06;13.93;;;6.40;;
65667;SDS011;52369;52.542;13.232;2023-05-07T06:06:32;11.20;;;5.82;;
65667;SDS011;52369;52.542;13.232;2023-05-07T06:08:58;9.57;;;6.10;;
65667;SDS011;52369;52.542;13.232;2023-05-07T06:11:24;11.52;;;6.10;;
65667;SDS011;52369;52.542;13.232;2023-05-07T06:13:50;9.93;;;6.03;;
65667;SDS011;52369;52.542;13.232;2023-05-07T06:16:16;10.25;;;5.97;;
65667;SDS011;52369;52.542;13.232;2023-05-07T06:18:42;10.43;;;5.80;;
65667;SDS011;52369;52.542;13.232;2023-05-07T06:21:10;9.18;;;5.70;;
65667;SDS011;52369;52.542;13.232;2023-05-07T06:23:36;9.63;;;5.40;;
65667;SDS011;52369;52.542;13.232;2023-05-07T06:26:02;11.05;;;6.20;;
65667;SDS011;52369;52.542;13.232;2023-05-07T06:28:28;11.93;;;7.07;;
65667;SDS011;52369;52.542;13.232;2023-05-07T06:30:55;9.48;;;5.80;;
65667;SDS011;52369;52.542;13.232;2023-05-07T06:33:21;10.43;;;5.70;;
65667;SDS011;52369;52.542;13.232;2023-05-07T06:35:47;9.27;;;5.75;;
65667;SDS011;52369;52.542;13.232;2023-05-07T06:38:13;9.57;;;5.93;;
65667;SDS011;52369;52.542;13.232;2023-05-07T06:40:39;11.88;;;6.10;;
65667;SDS011;52369;52.542;13.232;2023-05-07T06:43:05;10.90;;;6.25;;
65667;SDS011;52369;52.542;13.232;2023-05-07T06:45:31;12.35;;;6.97;;
65667;SDS011;52369;52.542;13.232;2023-05-07T06:47:58;13.98;;;6.90;;
65667;SDS011;52369;52.542;13.232;2023-05-07T06:50:24;11.75;;;6.85;;
65667;SDS011;52369;52.542;13.232;2023-05-07T06:52:50;9.07;;;5.78;;
65667;SDS011;52369;52.542;13.232;2023-05-07T06:55:16;9.55;;;6.43;;
65667;SDS011;52369;52.542;13.232;2023-05-07T06:57:42;10.85;;;6.18;;
65667;SDS011;52369;52.542;13.232;2023-05-07T07:00:08;11.68;;;7.00;;
65667;SDS011;52369;52.542;13.232;2023-05-07T07:02:35;10.45;;;6.30;;
65667;SDS011;52369;52.542;13.232;2023-05-07T07:05:01;10.60;;;6.50;;
65667;SDS011;52369;52.542;13.232;2023-05-07T07:07:27;9.80;;;6.13;;
65667;SDS011;52369;52.542;13.232;2023-05-07T07:09:53;12.90;;;6.72;;
65667;SDS011;52369;52.542;13.232;2023-05-07T07:12:20;9.90;;;5.93;;
65667;SDS011;52369;52.542;13.232;2023-05-07T07:14:47;11.45;;;6.28;;
65667;SDS011;52369;52.542;13.232;2023-05-07T07:17:13;9.52;;;5.40;;
65667;SDS011;52369;52.542;13.232;2023-05-07T07:19:39;10.02;;;5.60;;
65667;SDS011;52369;52.542;13.232;2023-05-07T07:22:05;8.55;;;5.72;;
65667;SDS011;52369;52.542;13.232;2023-05-07T07:24:31;8.73;;;5.38;;
65667;SDS011;52369;52.542;13.232;2023-05-07T07:26:57;8.70;;;5.65;;
65667;SDS011;52369;52.542;13.232;2023-05-07T07:29:23;11.95;;;5.72;;
65667;SDS011;52369;52.542;13.232;2023-05-07T07:31:51;8.30;;;4.97;;
65667;SDS011;52369;52.542;13.232;2023-05-07T07:34:17;10.18;;;5.00;;
65667;SDS011;52369;52.542;13.232;2023-05-07T07:36:43;9.40;;;5.40;;
65667;SDS011;52369;52.542;13.232;2023-05-07T07:39:09;9.60;;;5.18;;
65667;SDS011;52369;52.542;13.232;2023-05-07T07:41:35;10.27;;;5.95;;
65667;SDS011;52369;52.542;13.232;2023-05-07T07:44:02;12.65;;;5.15;;
65667;SDS011;52369;52.542;13.232;2023-05-07T07:46:28;8.30;;;4.63;;
65667;SDS011;52369;52.542;13.232;2023-05-07T07:48:54;7.97;;;4.88;;
65667;SDS011;52369;52.542;13.232;2023-05-07T07:51:23;6.82;;;4.40;;
65667;SDS011;52369;52.542;13.232;2023-05-07T07:53:49;8.73;;;5.00;;
65667;SDS011;52369;52.542;13.232;2023-05-07T07:56:15;8.05;;;4.07;;
65667;SDS011;52369;52.542;13.232;2023-05-07T07:58:41;9.63;;;4.40;;
65667;SDS011;52369;52.542;13.232;2023-05-07T08:01:07;7.90;;;4.28;;
65667;SDS011;52369;52.542;13.232;2023-05-07T08:03:33;5.82;;;4.00;;
65667;SDS011;52369;52.542;13.232;2023-05-07T08:06:00;8.23;;;4.47;;
65667;SDS011;52369;52.542;13.232;2023-05-07T08:08:26;6.97;;;4.18;;
65667;SDS011;52369;52.542;13.232;2023-05-07T08:10:52;5.88;;;3.83;;
65667;SDS011;52369;52.542;13.232;2023-05-07T08:13:18;6.15;;;3.88;;
65667;SDS011;52369;52.542;13.232;2023-05-07T08:15:44;7.03;;;4.00;;
65667;SDS011;52369;52.542;13.232;2023-05-07T08:18:10;5.57;;;4.10;;
65667;SDS011;52369;52.542;13.232;2023-05-07T08:20:36;4.95;;;3.38;;
65667;SDS011;52369;52.542;13.232;2023-05-07T08:23:04;6.32;;;4.32;;
65667;SDS011;52369;52.542;13.232;2023-05-07T08:25:32;8.15;;;3.83;;
65667;SDS011;52369;52.542;13.232;2023-05-07T08:27:59;6.10;;;3.45;;
65667;SDS011;52369;52.542;13.232;2023-05-07T08:30:25;7.72;;;3.85;;
65667;SDS011;52369;52.542;13.232;2023-05-07T08:32:52;6.38;;;3.90;;
65667;SDS011;52369;52.542;13.232;2023-05-07T08:35:18;5.30;;;3.85;;
65667;SDS011;52369;52.542;13.232;2023-05-07T08:37:44;6.20;;;3.65;;
65667;SDS011;52369;52.542;13.232;2023-05-07T08:40:10;7.05;;;4.18;;
65667;SDS011;52369;52.542;13.232;2023-05-07T08:42:36;9.60;;;3.50;;
65667;SDS011;52369;52.542;13.232;2023-05-07T08:45:03;6.00;;;3.47;;
65667;SDS011;52369;52.542;13.232;2023-05-07T08:47:43;5.75;;;3.42;;
65667;SDS011;52369;52.542;13.232;2023-05-07T08:50:12;4.65;;;3.10;;
65667;SDS011;52369;52.542;13.232;2023-05-07T08:52:39;6.00;;;3.60;;
65667;SDS011;52369;52.542;13.232;2023-05-07T08:55:06;6.03;;;3.80;;
65667;SDS011;52369;52.542;13.232;2023-05-07T08:57:32;5.47;;;3.70;;
65667;SDS011;52369;52.542;13.232;2023-05-07T08:59:58;5.00;;;3.47;;
65667;SDS011;52369;52.542;13.232;2023-05-07T09:02:24;6.45;;;3.28;;
65667;SDS011;52369;52.542;13.232;2023-05-07T09:04:50;5.63;;;3.67;;
65667;SDS011;52369;52.542;13.232;2023-05-07T09:07:17;4.97;;;3.45;;
65667;SDS011;52369;52.542;13.232;2023-05-07T09:09:44;6.93;;;4.25;;
65667;SDS011;52369;52.542;13.232;2023-05-07T09:12:10;8.60;;;4.65;;
65667;SDS011;52369;52.542;13.232;2023-05-07T09:14:36;5.15;;;3.50;;
65667;SDS011;52369;52.542;13.232;2023-05-07T09:17:02;5.45;;;3.45;;
65667;SDS011;52369;52.542;13.232;2023-05-07T09:19:28;7.47;;;4.07;;
65667;SDS011;52369;52.542;13.232;2023-05-07T09:22:01;5.45;;;3.70;;
65667;SDS011;52369;52.542;13.232;2023-05-07T09:27:00;5.50;;;3.70;;
65667;SDS011;52369;52.542;13.232;2023-05-07T09:29:27;6.18;;;3.63;;
65667;SDS011;52369;52.542;13.232;2023-05-07T09:32:03;7.38;;;3.97;;
65667;SDS011;52369;52.542;13.232;2023-05-07T09:34:29;7.15;;;3.30;;
65667;SDS011;52369;52.542;13.232;2023-05-07T09:36:56;6.00;;;3.47;;
65667;SDS011;52369;52.542;13.232;2023-05-07T09:39:25;5.55;;;3.45;;
65667;SDS011;52369;52.542;13.232;2023-05-07T09:41:51;5.03;;;3.75;;
65667;SDS011;52369;52.542;13.232;2023-05-07T09:44:20;6.55;;;3.20;;
65667;SDS011;52369;52.542;13.232;2023-05-07T09:46:47;7.47;;;3.80;;
65667;SDS011;52369;52.542;13.232;2023-05-07T09:49:20;7.45;;;3.67;;
65667;SDS011;52369;52.542;13.232;2023-05-07T09:51:50;7.72;;;4.15;;
65667;SDS011;52369;52.542;13.232;2023-05-07T09:54:16;5.32;;;3.65;;
65667;SDS011;52369;52.542;13.232;2023-05-07T09:56:43;4.75;;;3.53;;
65667;SDS011;52369;52.542;13.232;2023-05-07T09:59:11;6.30;;;3.50;;
65667;SDS011;52369;52.542;13.232;2023-05-07T10:01:42;6.68;;;4.07;;
65667;SDS011;52369;52.542;13.232;2023-05-07T10:04:09;6.53;;;3.47;;
65667;SDS011;52369;52.542;13.232;2023-05-07T10:06:35;4.97;;;3.40;;
65667;SDS011;52369;52.542;13.232;2023-05-07T10:09:02;4.72;;;3.28;;
65667;SDS011;52369;52.542;13.232;2023-05-07T10:11:31;5.65;;;3.58;;
65667;SDS011;52369;52.542;13.232;2023-05-07T10:13:58;5.80;;;3.50;;
65667;SDS011;52369;52.542;13.232;2023-05-07T10:16:27;5.65;;;3.75;;
65667;SDS011;52369;52.542;13.232;2023-05-07T10:18:53;5.38;;;3.45;;
65667;SDS011;52369;52.542;13.232;2023-05-07T10:21:20;5.95;;;3.30;;
65667;SDS011;52369;52.542;13.232;2023-05-07T10:23:51;7.10;;;3.97;;
65667;SDS011;52369;52.542;13.232;2023-05-07T10:26:18;6.00;;;3.65;;
65667;SDS011;52369;52.542;13.232;2023-05-07T10:28:46;5.65;;;3.47;;
65667;SDS011;52369;52.542;13.232;2023-05-07T10:32:04;5.18;;;2.88;;
65667;SDS011;52369;52.542;13.232;2023-05-07T10:34:00;5.72;;;3.13;;
65667;SDS011;52369;52.542;13.232;2023-05-07T10:36:26;6.05;;;3.40;;
65667;SDS011;52369;52.542;13.232;2023-05-07T10:38:52;4.97;;;3.00;;
65667;SDS011;52369;52.542;13.232;2023-05-07T10:41:19;3.28;;;2.67;;
65667;SDS011;52369;52.542;13.232;2023-05-07T10:43:46;3.88;;;2.67;;
65667;SDS011;52369;52.542;13.232;2023-05-07T10:46:15;4.57;;;2.80;;
65667;SDS011;52369;52.542;13.232;2023-05-07T10:51:31;5.43;;;2.95;;
65667;SDS011;52369;52.542;13.232;2023-05-07T10:56:39;5.68;;;3.20;;
65667;SDS011;52369;52.542;13.232;2023-05-07T11:01:59;4.20;;;2.70;;
65667;SDS011;52369;52.542;13.232;2023-05-07T11:04:27;7.78;;;3.08;;
65667;SDS011;52369;52.542;13.232;2023-05-07T11:15:09;5.13;;;2.92;;
65667;SDS011;52369;52.542;13.232;2023-05-07T11:17:55;5.32;;;3.25;;
65667;SDS011;52369;52.542;13.232;2023-05-07T11:20:21;8.85;;;3.85;;
65667;SDS011;52369;52.542;13.232;2023-05-07T11:23:12;5.90;;;3.50;;
65667;SDS011;52369;52.542;13.232;2023-05-07T11:25:59;6.97;;;3.70;;
65667;SDS011;52369;52.542;13.232;2023-05-07T11:28:27;5.78;;;3.33;;
65667;SDS011;52369;52.542;13.232;2023-05-07T11:30:53;5.60;;;3.15;;
65667;SDS011;52369;52.542;13.232;2023-05-07T11:33:19;5.72;;;3.60;;
65667;SDS011;52369;52.542;13.232;2023-05-07T11:35:45;6.68;;;3.30;;
65667;SDS011;52369;52.542;13.232;2023-05-07T11:38:12;4.13;;;2.90;;
65667;SDS011;52369;52.542;13.232;2023-05-07T11:40:48;4.40;;;2.83;;
65667;SDS011;52369;52.542;13.232;2023-05-07T11:43:15;5.97;;;3.00;;
65667;SDS011;52369;52.542;13.232;2023-05-07T11:45:41;5.88;;;3.75;;
65667;SDS011;52369;52.542;13.232;2023-05-07T11:48:07;6.38;;;4.07;;
65667;SDS011;52369;52.542;13.232;2023-05-07T11:50:33;4.95;;;2.90;;
65667;SDS011;52369;52.542;13.232;2023-05-07T11:52:59;8.30;;;4.32;;
65667;SDS011;52369;52.542;13.232;2023-05-07T11:55:25;7.85;;;4.68;;
65667;SDS011;52369;52.542;13.232;2023-05-07T11:57:51;7.50;;;4.07;;
65667;SDS011;52369;52.542;13.232;2023-05-07T12:00:17;4.50;;;3.00;;
65667;SDS011;52369;52.542;13.232;2023-05-07T12:02:45;3.58;;;2.63;;
65667;SDS011;52369;52.542;13.232;2023-05-07T12:05:14;4.75;;;2.90;;
65667;SDS011;52369;52.542;13.232;2023-05-07T12:07:40;4.65;;;3.15;;
65667;SDS011;52369;52.542;13.232;2023-05-07T12:10:06;5.22;;;3.33;;
65667;SDS011;52369;52.542;13.232;2023-05-07T12:12:39;5.68;;;3.22;;
65667;SDS011;52369;52.542;13.232;2023-05-07T12:15:06;6.05;;;3.03;;
65667;SDS011;52369;52.542;13.232;2023-05-07T12:17:33;7.53;;;4.20;;
65667;SDS011;52369;52.542;13.232;2023-05-07T12:19:59;10.05;;;5.50;;
65667;SDS011;52369;52.542;13.232;2023-05-07T12:22:25;7.20;;;4.22;;
65667;SDS011;52369;52.542;13.232;2023-05-07T12:24:58;13.10;;;6.65;;
65667;SDS011;52369;52.542;13.232;2023-05-07T12:29:50;5.70;;;3.03;;
65667;SDS011;52369;52.542;13.232;2023-05-07T12:32:17;9.18;;;5.30;;
65667;SDS011;52369;52.542;13.232;2023-05-07T12:34:44;5.65;;;2.90;;
65667;SDS011;52369;52.542;13.232;2023-05-07T12:37:10;29.85;;;11.25;;
65667;SDS011;52369;52.542;13.232;2023-05-07T12:39:37;20.55;;;9.50;;
65667;SDS011;52369;52.542;13.232;2023-05-07T12:42:04;4.32;;;2.35;;
65667;SDS011;52369;52.542;13.232;2023-05-07T12:44:32;3.63;;;2.50;;
65667;SDS011;52369;52.542;13.232;2023-05-07T12:47:01;6.57;;;3.83;;
65667;SDS011;52369;52.542;13.232;2023-05-07T12:49:27;9.60;;;4.60;;
65667;SDS011;52369;52.542;13.232;2023-05-07T12:51:53;4.35;;;2.78;;
65667;SDS011;52369;52.542;13.232;2023-05-07T12:57:02;6.75;;;2.70;;
65667;SDS011;52369;52.542;13.232;2023-05-07T12:59:41;4.38;;;2.50;;
65667;SDS011;52369;52.542;13.232;2023-05-07T13:02:07;4.30;;;2.63;;
65667;SDS011;52369;52.542;13.232;2023-05-07T13:04:34;5.25;;;3.17;;
65667;SDS011;52369;52.542;13.232;2023-05-07T13:07:00;4.13;;;2.67;;
65667;SDS011;52369;52.542;13.232;2023-05-07T13:09:27;3.63;;;2.63;;
65667;SDS011;52369;52.542;13.232;2023-05-07T13:11:54;4.60;;;3.50;;
65667;SDS011;52369;52.542;13.232;2023-05-07T13:14:20;11.32;;;4.97;;
65667;SDS011;52369;52.542;13.232;2023-05-07T13:16:47;6.15;;;3.25;;
65667;SDS011;52369;52.542;13.232;2023-05-07T13:19:13;4.75;;;3.00;;
65667;SDS011;52369;52.542;13.232;2023-05-07T13:21:39;4.15;;;2.97;;
65667;SDS011;52369;52.542;13.232;2023-05-07T13:24:05;5.30;;;2.50;;
65667;SDS011;52369;52.542;13.232;2023-05-07T13:26:31;4.97;;;2.50;;
65667;SDS011;52369;52.542;13.232;2023-05-07T13:28:57;5.13;;;2.30;;
65667;SDS011;52369;52.542;13.232;2023-05-07T13:31:24;3.67;;;2.40;;
65667;SDS011;52369;52.542;13.232;2023-05-07T13:33:50;5.63;;;3.08;;
65667;SDS011;52369;52.542;13.232;2023-05-07T13:36:17;3.80;;;2.17;;
65667;SDS011;52369;52.542;13.232;2023-05-07T13:38:43;4.43;;;2.50;;
65667;SDS011;52369;52.542;13.232;2023-05-07T13:41:09;5.13;;;2.35;;
65667;SDS011;52369;52.542;13.232;2023-05-07T13:43:37;5.47;;;2.47;;
65667;SDS011;52369;52.542;13.232;2023-05-07T13:46:03;4.30;;;2.80;;
65667;SDS011;52369;52.542;13.232;2023-05-07T13:48:29;7.28;;;3.13;;
65667;SDS011;52369;52.542;13.232;2023-05-07T13:50:55;5.15;;;2.97;;
65667;SDS011;52369;52.542;13.232;2023-05-07T13:53:21;7.40;;;3.28;;
65667;SDS011;52369;52.542;13.232;2023-05-07T13:55:48;5.28;;;3.05;;
65667;SDS011;52369;52.542;13.232;2023-05-07T13:58:17;8.45;;;4.82;;
65667;SDS011;52369;52.542;13.232;2023-05-07T14:00:43;5.72;;;2.05;;
65667;SDS011;52369;52.542;13.232;2023-05-07T14:03:09;4.18;;;1.77;;
65667;SDS011;52369;52.542;13.232;2023-05-07T14:05:35;5.35;;;2.20;;
65667;SDS011;52369;52.542;13.232;2023-05-07T14:08:01;2.90;;;2.17;;
65667;SDS011;52369;52.542;13.232;2023-05-07T14:10:28;3.45;;;1.90;;
65667;SDS011;52369;52.542;13.232;2023-05-07T14:12:55;4.22;;;2.05;;
65667;SDS011;52369;52.542;13.232;2023-05-07T14:15:21;3.47;;;2.20;;
65667;SDS011;52369;52.542;13.232;2023-05-07T14:17:47;2.97;;;1.52;;
65667;SDS011;52369;52.542;13.232;2023-05-07T14:20:13;2.00;;;1.60;;
65667;SDS011;52369;52.542;13.232;2023-05-07T14:22:39;3.75;;;1.95;;
65667;SDS011;52369;52.542;13.232;2023-05-07T14:25:05;3.92;;;2.25;;
65667;SDS011;52369;52.542;13.232;2023-05-07T14:27:32;3.03;;;2.33;;
65667;SDS011;52369;52.542;13.232;2023-05-07T14:29:58;4.57;;;2.17;;
65667;SDS011;52369;52.542;13.232;2023-05-07T14:32:24;3.05;;;1.80;;
65667;SDS011;52369;52.542;13.232;2023-05-07T14:34:50;4.00;;;2.35;;
65667;SDS011;52369;52.542;13.232;2023-05-07T14:37:16;5.43;;;2.10;;
65667;SDS011;52369;52.542;13.232;2023-05-07T14:39:45;5.20;;;2.38;;
65667;SDS011;52369;52.542;13.232;2023-05-07T14:42:11;2.78;;;1.92;;
65667;SDS011;52369;52.542;13.232;2023-05-07T14:44:37;5.47;;;2.35;;
65667;SDS011;52369;52.542;13.232;2023-05-07T14:47:06;3.95;;;2.00;;
65667;SDS011;52369;52.542;13.232;2023-05-07T14:49:32;5.47;;;2.30;;
65667;SDS011;52369;52.542;13.232;2023-05-07T14:51:58;3.20;;;2.03;;